sensor_id;sensor_type;location;lat;lon;timestamp;temperature;humidity
23301;DHT22;11819;51.394;12.340;2023-03-31T00:00:32;11.10;93.30
23301;DHT22;11819;51.394;12.340;2023-03-31T00:02:58;11.00;93.30
23301;DHT22;11819;51.394;12.340;2023-03-31T00:05:24;11.00;93.30
23301;DHT22;11819;51.394;12.340;2023-03-31T00:07:57;11.00;93.30
23301;DHT22;11819;51.394;12.340;2023-03-31T00:10:29;11.00;93.30
23301;DHT22;11819;51.394;12.340;2023-03-31T00:12:57;11.10;93.30
23301;DHT22;11819;51.394;12.340;2023-03-31T00:15:23;11.00;93.20
23301;DHT22;11819;51.394;12.340;2023-03-31T00:17:48;11.00;93.20
23301;DHT22;11819;51.394;12.340;2023-03-31T00:20:14;11.00;93.30
23301;DHT22;11819;51.394;12.340;2023-03-31T00:22:40;11.00;93.30
23301;DHT22;11819;51.394;12.340;2023-03-31T00:25:15;11.00;93.40
23301;DHT22;11819;51.394;12.340;2023-03-31T00:27:44;10.90;93.30
23301;DHT22;11819;51.394;12.340;2023-03-31T00:30:11;10.90;93.30
23301;DHT22;11819;51.394;12.340;2023-03-31T00:32:37;10.90;93.40
23301;DHT22;11819;51.394;12.340;2023-03-31T00:35:03;10.90;93.40
23301;DHT22;11819;51.394;12.340;2023-03-31T00:37:30;10.90;93.40
23301;DHT22;11819;51.394;12.340;2023-03-31T00:39:59;10.80;93.40
23301;DHT22;11819;51.394;12.340;2023-03-31T00:42:25;10.80;93.30
23301;DHT22;11819;51.394;12.340;2023-03-31T00:45:21;10.80;93.30
23301;DHT22;11819;51.394;12.340;2023-03-31T00:47:53;10.80;93.40
23301;DHT22;11819;51.394;12.340;2023-03-31T00:50:26;10.80;93.30
23301;DHT22;11819;51.394;12.340;2023-03-31T00:52:56;10.80;93.30
23301;DHT22;11819;51.394;12.340;2023-03-31T00:55:29;10.80;93.70
23301;DHT22;11819;51.394;12.340;2023-03-31T00:57:58;10.80;93.30
23301;DHT22;11819;51.394;12.340;2023-03-31T01:00:26;10.80;93.30
23301;DHT22;11819;51.394;12.340;2023-03-31T01:02:58;10.80;93.30
23301;DHT22;11819;51.394;12.340;2023-03-31T01:05:29;10.80;93.30
23301;DHT22;11819;51.394;12.340;2023-03-31T01:07:58;10.80;93.30
23301;DHT22;11819;51.394;12.340;2023-03-31T01:10:24;10.80;93.30
23301;DHT22;11819;51.394;12.340;2023-03-31T01:12:53;10.80;93.30
23301;DHT22;11819;51.394;12.340;2023-03-31T01:15:20;10.80;93.30
23301;DHT22;11819;51.394;12.340;2023-03-31T01:17:47;10.80;93.30
23301;DHT22;11819;51.394;12.340;2023-03-31T01:20:32;10.80;93.30
23301;DHT22;11819;51.394;12.340;2023-03-31T01:23:14;10.80;93.30
23301;DHT22;11819;51.394;12.340;2023-03-31T01:47:44;10.60;93.60
23301;DHT22;11819;51.394;12.340;2023-03-31T01:50:22;10.60;93.60
23301;DHT22;11819;51.394;12.340;2023-03-31T01:53:00;10.60;93.60
23301;DHT22;11819;51.394;12.340;2023-03-31T01:56:09;10.60;93.60
23301;DHT22;11819;51.394;12.340;2023-03-31T01:58:39;10.50;93.70
23301;DHT22;11819;51.394;12.340;2023-03-31T02:01:26;10.50;93.80
23301;DHT22;11819;51.394;12.340;2023-03-31T02:04:21;10.50;93.80
23301;DHT22;11819;51.394;12.340;2023-03-31T02:06:54;10.50;93.80
23301;DHT22;11819;51.394;12.340;2023-03-31T02:09:27;10.50;93.90
23301;DHT22;11819;51.394;12.340;2023-03-31T02:11:56;10.50;93.90
23301;DHT22;11819;51.394;12.340;2023-03-31T02:14:26;10.50;93.90
23301;DHT22;11819;51.394;12.340;2023-03-31T02:16:56;10.50;94.00
23301;DHT22;11819;51.394;12.340;2023-03-31T02:19:31;10.50;94.00
23301;DHT22;11819;51.394;12.340;2023-03-31T02:21:58;10.50;94.00
23301;DHT22;11819;51.394;12.340;2023-03-31T02:24:25;10.50;94.10
23301;DHT22;11819;51.394;12.340;2023-03-31T02:27:02;10.50;94.10
23301;DHT22;11819;51.394;12.340;2023-03-31T02:29:30;10.40;94.10
23301;DHT22;11819;51.394;12.340;2023-03-31T02:32:03;10.40;94.10
23301;DHT22;11819;51.394;12.340;2023-03-31T02:34:31;10.40;94.20
23301;DHT22;11819;51.394;12.340;2023-03-31T02:36:57;10.40;94.20
23301;DHT22;11819;51.394;12.340;2023-03-31T02:39:30;10.40;94.20
23301;DHT22;11819;51.394;12.340;2023-03-31T02:41:58;10.50;94.30
23301;DHT22;11819;51.394;12.340;2023-03-31T02:44:24;10.50;94.30
23301;DHT22;11819;51.394;12.340;2023-03-31T02:46:51;10.50;94.30
23301;DHT22;11819;51.394;12.340;2023-03-31T02:49:18;10.50;94.30
23301;DHT22;11819;51.394;12.340;2023-03-31T02:54:35;10.50;94.30
23301;DHT22;11819;51.394;12.340;2023-03-31T02:57:18;10.50;94.20
23301;DHT22;11819;51.394;12.340;2023-03-31T03:00:46;10.50;94.20
23301;DHT22;11819;51.394;12.340;2023-03-31T03:03:12;10.50;94.20
23301;DHT22;11819;51.394;12.340;2023-03-31T03:05:59;10.50;94.30
23301;DHT22;11819;51.394;12.340;2023-03-31T03:14:23;10.50;94.30
23301;DHT22;11819;51.394;12.340;2023-03-31T03:19:52;10.50;94.40
23301;DHT22;11819;51.394;12.340;2023-03-31T03:22:18;10.60;94.30
23301;DHT22;11819;51.394;12.340;2023-03-31T03:24:44;10.60;94.30
23301;DHT22;11819;51.394;12.340;2023-03-31T03:27:09;10.60;94.30
23301;DHT22;11819;51.394;12.340;2023-03-31T03:29:35;10.60;94.30
23301;DHT22;11819;51.394;12.340;2023-03-31T03:32:00;10.60;94.30
23301;DHT22;11819;51.394;12.340;2023-03-31T03:34:26;10.60;94.20
23301;DHT22;11819;51.394;12.340;2023-03-31T03:36:51;10.60;94.20
23301;DHT22;11819;51.394;12.340;2023-03-31T03:39:17;10.60;94.20
23301;DHT22;11819;51.394;12.340;2023-03-31T03:41:42;10.60;94.20
23301;DHT22;11819;51.394;12.340;2023-03-31T03:44:08;10.60;94.20
23301;DHT22;11819;51.394;12.340;2023-03-31T03:46:34;10.60;94.20
23301;DHT22;11819;51.394;12.340;2023-03-31T03:48:59;10.60;94.20
23301;DHT22;11819;51.394;12.340;2023-03-31T03:51:25;10.60;94.20
23301;DHT22;11819;51.394;12.340;2023-03-31T03:53:50;10.60;94.10
23301;DHT22;11819;51.394;12.340;2023-03-31T03:56:16;10.60;94.10
23301;DHT22;11819;51.394;12.340;2023-03-31T03:58:42;10.60;94.00
23301;DHT22;11819;51.394;12.340;2023-03-31T04:01:07;10.60;94.00
23301;DHT22;11819;51.394;12.340;2023-03-31T04:03:33;10.60;94.00
23301;DHT22;11819;51.394;12.340;2023-03-31T04:05:58;10.60;94.00
23301;DHT22;11819;51.394;12.340;2023-03-31T04:08:24;10.60;94.00
23301;DHT22;11819;51.394;12.340;2023-03-31T04:10:50;10.60;94.00
23301;DHT22;11819;51.394;12.340;2023-03-31T04:13:17;10.60;93.90
23301;DHT22;11819;51.394;12.340;2023-03-31T04:15:43;10.60;93.90
23301;DHT22;11819;51.394;12.340;2023-03-31T04:18:09;10.60;93.90
23301;DHT22;11819;51.394;12.340;2023-03-31T04:20:43;10.60;93.90
23301;DHT22;11819;51.394;12.340;2023-03-31T04:23:09;10.60;93.80
23301;DHT22;11819;51.394;12.340;2023-03-31T04:25:35;10.60;93.80
23301;DHT22;11819;51.394;12.340;2023-03-31T04:28:03;10.60;93.80
23301;DHT22;11819;51.394;12.340;2023-03-31T04:30:31;10.70;93.80
23301;DHT22;11819;51.394;12.340;2023-03-31T04:32:59;10.70;93.80
23301;DHT22;11819;51.394;12.340;2023-03-31T04:35:27;10.70;93.80
23301;DHT22;11819;51.394;12.340;2023-03-31T04:38:07;10.70;93.80
23301;DHT22;11819;51.394;12.340;2023-03-31T04:40:33;10.70;93.80
23301;DHT22;11819;51.394;12.340;2023-03-31T04:43:00;10.70;93.70
23301;DHT22;11819;51.394;12.340;2023-03-31T04:45:26;10.70;93.70
23301;DHT22;11819;51.394;12.340;2023-03-31T04:47:51;10.80;93.70
23301;DHT22;11819;51.394;12.340;2023-03-31T04:50:17;10.80;93.70
23301;DHT22;11819;51.394;12.340;2023-03-31T04:52:43;10.80;93.70
23301;DHT22;11819;51.394;12.340;2023-03-31T04:55:09;10.80;93.70
23301;DHT22;11819;51.394;12.340;2023-03-31T04:57:34;10.80;93.60
23301;DHT22;11819;51.394;12.340;2023-03-31T05:00:02;10.80;93.60
23301;DHT22;11819;51.394;12.340;2023-03-31T05:02:31;10.80;93.60
23301;DHT22;11819;51.394;12.340;2023-03-31T05:04:57;10.80;93.60
23301;DHT22;11819;51.394;12.340;2023-03-31T05:07:22;10.80;93.60
23301;DHT22;11819;51.394;12.340;2023-03-31T05:09:48;10.80;93.60
23301;DHT22;11819;51.394;12.340;2023-03-31T05:12:14;10.80;93.50
23301;DHT22;11819;51.394;12.340;2023-03-31T05:14:39;10.80;93.40
23301;DHT22;11819;51.394;12.340;2023-03-31T05:17:05;10.80;93.40
23301;DHT22;11819;51.394;12.340;2023-03-31T05:19:31;10.90;93.40
23301;DHT22;11819;51.394;12.340;2023-03-31T05:21:56;10.90;93.70
23301;DHT22;11819;51.394;12.340;2023-03-31T05:24:22;10.90;93.40
23301;DHT22;11819;51.394;12.340;2023-03-31T05:26:47;10.90;93.30
23301;DHT22;11819;51.394;12.340;2023-03-31T05:29:20;10.80;93.30
23301;DHT22;11819;51.394;12.340;2023-03-31T05:31:46;10.80;93.30
23301;DHT22;11819;51.394;12.340;2023-03-31T05:34:12;10.80;93.40
23301;DHT22;11819;51.394;12.340;2023-03-31T05:36:38;10.80;93.40
23301;DHT22;11819;51.394;12.340;2023-03-31T05:39:05;10.80;93.50
23301;DHT22;11819;51.394;12.340;2023-03-31T05:41:31;10.80;93.50
23301;DHT22;11819;51.394;12.340;2023-03-31T05:43:57;10.80;93.60
23301;DHT22;11819;51.394;12.340;2023-03-31T05:46:23;10.80;93.70
23301;DHT22;11819;51.394;12.340;2023-03-31T05:48:49;10.80;93.80
23301;DHT22;11819;51.394;12.340;2023-03-31T05:51:14;10.80;93.90
23301;DHT22;11819;51.394;12.340;2023-03-31T05:53:40;10.80;94.00
23301;DHT22;11819;51.394;12.340;2023-03-31T05:56:07;10.80;94.10
23301;DHT22;11819;51.394;12.340;2023-03-31T05:58:36;10.90;94.20
23301;DHT22;11819;51.394;12.340;2023-03-31T06:01:07;11.00;94.30
23301;DHT22;11819;51.394;12.340;2023-03-31T06:03:34;11.00;94.30
23301;DHT22;11819;51.394;12.340;2023-03-31T06:06:00;11.10;94.40
23301;DHT22;11819;51.394;12.340;2023-03-31T06:08:30;11.10;94.50
23301;DHT22;11819;51.394;12.340;2023-03-31T06:10:57;11.10;94.50
23301;DHT22;11819;51.394;12.340;2023-03-31T06:13:23;11.10;94.60
23301;DHT22;11819;51.394;12.340;2023-03-31T06:15:53;11.10;94.60
23301;DHT22;11819;51.394;12.340;2023-03-31T06:18:19;11.20;94.60
23301;DHT22;11819;51.394;12.340;2023-03-31T06:20:45;11.20;94.60
23301;DHT22;11819;51.394;12.340;2023-03-31T06:23:10;11.20;94.60
23301;DHT22;11819;51.394;12.340;2023-03-31T06:25:39;11.20;94.70
23301;DHT22;11819;51.394;12.340;2023-03-31T06:28:05;11.20;94.70
23301;DHT22;11819;51.394;12.340;2023-03-31T06:30:32;11.20;94.70
23301;DHT22;11819;51.394;12.340;2023-03-31T06:32:58;11.20;94.70
23301;DHT22;11819;51.394;12.340;2023-03-31T06:35:24;11.20;94.70
23301;DHT22;11819;51.394;12.340;2023-03-31T06:37:50;11.20;94.70
23301;DHT22;11819;51.394;12.340;2023-03-31T06:40:16;11.20;94.70
23301;DHT22;11819;51.394;12.340;2023-03-31T06:42:41;11.20;94.70
23301;DHT22;11819;51.394;12.340;2023-03-31T06:45:07;11.20;94.70
23301;DHT22;11819;51.394;12.340;2023-03-31T06:47:33;11.20;94.80
23301;DHT22;11819;51.394;12.340;2023-03-31T06:49:59;11.20;95.00
23301;DHT22;11819;51.394;12.340;2023-03-31T06:52:24;11.20;95.20
23301;DHT22;11819;51.394;12.340;2023-03-31T06:54:50;11.20;95.30
23301;DHT22;11819;51.394;12.340;2023-03-31T06:57:15;11.10;95.30
23301;DHT22;11819;51.394;12.340;2023-03-31T06:59:41;11.20;95.50
23301;DHT22;11819;51.394;12.340;2023-03-31T07:02:09;11.20;95.50
23301;DHT22;11819;51.394;12.340;2023-03-31T07:04:35;11.20;95.40
23301;DHT22;11819;51.394;12.340;2023-03-31T07:07:00;11.30;95.40
23301;DHT22;11819;51.394;12.340;2023-03-31T07:09:26;11.30;95.30
23301;DHT22;11819;51.394;12.340;2023-03-31T07:11:52;11.40;95.20
23301;DHT22;11819;51.394;12.340;2023-03-31T07:14:18;11.40;95.20
23301;DHT22;11819;51.394;12.340;2023-03-31T07:16:43;11.50;95.10
23301;DHT22;11819;51.394;12.340;2023-03-31T07:19:09;11.50;95.00
23301;DHT22;11819;51.394;12.340;2023-03-31T07:21:36;11.50;94.90
23301;DHT22;11819;51.394;12.340;2023-03-31T07:24:02;11.50;94.80
23301;DHT22;11819;51.394;12.340;2023-03-31T07:26:27;11.60;94.80
23301;DHT22;11819;51.394;12.340;2023-03-31T07:28:53;11.60;94.70
23301;DHT22;11819;51.394;12.340;2023-03-31T07:31:21;11.60;94.50
23301;DHT22;11819;51.394;12.340;2023-03-31T07:33:47;11.60;94.30
23301;DHT22;11819;51.394;12.340;2023-03-31T07:36:12;11.70;94.30
23301;DHT22;11819;51.394;12.340;2023-03-31T07:38:39;11.70;94.30
23301;DHT22;11819;51.394;12.340;2023-03-31T07:41:09;11.70;94.30
23301;DHT22;11819;51.394;12.340;2023-03-31T07:43:35;11.70;94.30
23301;DHT22;11819;51.394;12.340;2023-03-31T07:46:00;11.80;94.20
23301;DHT22;11819;51.394;12.340;2023-03-31T07:48:26;11.80;94.00
23301;DHT22;11819;51.394;12.340;2023-03-31T07:50:53;11.80;93.90
23301;DHT22;11819;51.394;12.340;2023-03-31T07:53:26;11.80;93.90
23301;DHT22;11819;51.394;12.340;2023-03-31T07:55:52;11.80;93.90
23301;DHT22;11819;51.394;12.340;2023-03-31T07:58:17;11.90;93.80
23301;DHT22;11819;51.394;12.340;2023-03-31T08:00:43;11.90;93.70
23301;DHT22;11819;51.394;12.340;2023-03-31T08:03:09;12.00;93.70
23301;DHT22;11819;51.394;12.340;2023-03-31T08:05:34;12.00;93.30
23301;DHT22;11819;51.394;12.340;2023-03-31T08:08:00;11.90;93.30
23301;DHT22;11819;51.394;12.340;2023-03-31T08:10:26;12.00;93.30
23301;DHT22;11819;51.394;12.340;2023-03-31T08:12:52;12.00;93.40
23301;DHT22;11819;51.394;12.340;2023-03-31T08:15:18;12.00;93.30
23301;DHT22;11819;51.394;12.340;2023-03-31T08:17:44;12.10;93.20
23301;DHT22;11819;51.394;12.340;2023-03-31T08:20:10;12.10;93.10
23301;DHT22;11819;51.394;12.340;2023-03-31T08:22:37;12.20;93.10
23301;DHT22;11819;51.394;12.340;2023-03-31T08:25:04;12.20;93.00
23301;DHT22;11819;51.394;12.340;2023-03-31T08:27:34;12.30;92.90
23301;DHT22;11819;51.394;12.340;2023-03-31T08:30:00;12.40;92.70
23301;DHT22;11819;51.394;12.340;2023-03-31T08:32:30;12.40;92.40
23301;DHT22;11819;51.394;12.340;2023-03-31T08:34:56;12.50;92.30
23301;DHT22;11819;51.394;12.340;2023-03-31T08:37:22;12.60;92.30
23301;DHT22;11819;51.394;12.340;2023-03-31T08:39:48;12.60;92.10
23301;DHT22;11819;51.394;12.340;2023-03-31T08:42:15;12.70;91.90
23301;DHT22;11819;51.394;12.340;2023-03-31T08:47:33;12.70;91.80
23301;DHT22;11819;51.394;12.340;2023-03-31T08:50:13;12.60;91.90
23301;DHT22;11819;51.394;12.340;2023-03-31T08:52:49;12.60;92.20
23301;DHT22;11819;51.394;12.340;2023-03-31T08:55:23;12.60;92.50
23301;DHT22;11819;51.394;12.340;2023-03-31T08:58:07;12.50;92.80
23301;DHT22;11819;51.394;12.340;2023-03-31T09:00:45;12.50;93.00
23301;DHT22;11819;51.394;12.340;2023-03-31T09:03:25;12.40;93.30
23301;DHT22;11819;51.394;12.340;2023-03-31T09:06:03;12.30;93.60
23301;DHT22;11819;51.394;12.340;2023-03-31T09:08:34;12.30;94.00
23301;DHT22;11819;51.394;12.340;2023-03-31T09:19:36;12.40;94.70
23301;DHT22;11819;51.394;12.340;2023-03-31T09:22:08;12.40;94.80
23301;DHT22;11819;51.394;12.340;2023-03-31T09:24:45;12.40;94.90
23301;DHT22;11819;51.394;12.340;2023-03-31T09:27:13;12.40;94.90
23301;DHT22;11819;51.394;12.340;2023-03-31T09:32:21;12.30;95.00
23301;DHT22;11819;51.394;12.340;2023-03-31T09:34:52;12.30;95.10
23301;DHT22;11819;51.394;12.340;2023-03-31T09:37:18;12.20;95.10
23301;DHT22;11819;51.394;12.340;2023-03-31T09:39:43;12.30;95.20
23301;DHT22;11819;51.394;12.340;2023-03-31T09:42:13;12.30;95.20
23301;DHT22;11819;51.394;12.340;2023-03-31T09:44:42;12.30;95.20
23301;DHT22;11819;51.394;12.340;2023-03-31T09:49:52;12.30;95.00
23301;DHT22;11819;51.394;12.340;2023-03-31T09:52:56;12.30;95.10
23301;DHT22;11819;51.394;12.340;2023-03-31T09:55:28;12.30;95.20
23301;DHT22;11819;51.394;12.340;2023-03-31T09:57:59;12.30;95.20
23301;DHT22;11819;51.394;12.340;2023-03-31T10:00:24;12.30;95.30
23301;DHT22;11819;51.394;12.340;2023-03-31T10:02:53;12.30;95.30
23301;DHT22;11819;51.394;12.340;2023-03-31T10:05:36;12.30;95.30
23301;DHT22;11819;51.394;12.340;2023-03-31T10:08:21;12.30;95.40
23301;DHT22;11819;51.394;12.340;2023-03-31T10:10:52;12.20;95.50
23301;DHT22;11819;51.394;12.340;2023-03-31T10:13:26;12.10;95.60
23301;DHT22;11819;51.394;12.340;2023-03-31T10:16:08;12.10;95.70
23301;DHT22;11819;51.394;12.340;2023-03-31T10:18:42;12.10;95.70
23301;DHT22;11819;51.394;12.340;2023-03-31T10:21:25;12.10;95.80
23301;DHT22;11819;51.394;12.340;2023-03-31T10:23:52;12.10;95.90
23301;DHT22;11819;51.394;12.340;2023-03-31T10:26:24;12.00;95.90
23301;DHT22;11819;51.394;12.340;2023-03-31T10:28:51;12.00;96.00
23301;DHT22;11819;51.394;12.340;2023-03-31T10:31:34;12.00;96.10
23301;DHT22;11819;51.394;12.340;2023-03-31T10:34:06;12.00;96.20
23301;DHT22;11819;51.394;12.340;2023-03-31T10:36:33;12.00;96.20
23301;DHT22;11819;51.394;12.340;2023-03-31T10:39:06;11.90;96.10
23301;DHT22;11819;51.394;12.340;2023-03-31T10:41:33;11.90;96.10
23301;DHT22;11819;51.394;12.340;2023-03-31T10:44:01;11.80;96.30
23301;DHT22;11819;51.394;12.340;2023-03-31T10:46:46;11.80;96.40
23301;DHT22;11819;51.394;12.340;2023-03-31T10:49:23;11.80;96.40
23301;DHT22;11819;51.394;12.340;2023-03-31T10:51:59;11.80;96.40
23301;DHT22;11819;51.394;12.340;2023-03-31T10:54:27;11.80;96.50
23301;DHT22;11819;51.394;12.340;2023-03-31T10:57:03;11.80;96.70
23301;DHT22;11819;51.394;12.340;2023-03-31T11:02:54;11.80;96.70
23301;DHT22;11819;51.394;12.340;2023-03-31T11:05:48;11.80;96.90
23301;DHT22;11819;51.394;12.340;2023-03-31T11:08:58;11.80;96.90
23301;DHT22;11819;51.394;12.340;2023-03-31T11:11:26;11.80;97.00
23301;DHT22;11819;51.394;12.340;2023-03-31T11:14:37;11.90;97.10
23301;DHT22;11819;51.394;12.340;2023-03-31T11:17:34;11.90;97.10
23301;DHT22;11819;51.394;12.340;2023-03-31T11:23:13;11.80;97.20
23301;DHT22;11819;51.394;12.340;2023-03-31T11:28:55;11.80;97.40
23301;DHT22;11819;51.394;12.340;2023-03-31T11:37:18;11.70;97.60
23301;DHT22;11819;51.394;12.340;2023-03-31T11:45:40;11.70;97.90
23301;DHT22;11819;51.394;12.340;2023-03-31T11:49:00;11.70;97.80
23301;DHT22;11819;51.394;12.340;2023-03-31T11:51:04;11.70;97.80
23301;DHT22;11819;51.394;12.340;2023-03-31T11:53:35;11.60;97.90
23301;DHT22;11819;51.394;12.340;2023-03-31T11:56:02;11.70;98.00
23301;DHT22;11819;51.394;12.340;2023-03-31T11:58:46;11.60;98.00
23301;DHT22;11819;51.394;12.340;2023-03-31T12:01:23;11.60;98.00
23301;DHT22;11819;51.394;12.340;2023-03-31T12:04:12;11.60;98.00
23301;DHT22;11819;51.394;12.340;2023-03-31T12:06:41;11.60;98.00
23301;DHT22;11819;51.394;12.340;2023-03-31T12:12:12;11.50;98.30
23301;DHT22;11819;51.394;12.340;2023-03-31T12:14:52;11.50;98.30
23301;DHT22;11819;51.394;12.340;2023-03-31T12:17:25;11.50;98.50
23301;DHT22;11819;51.394;12.340;2023-03-31T12:19:55;11.50;98.40
23301;DHT22;11819;51.394;12.340;2023-03-31T12:22:28;11.50;98.50
23301;DHT22;11819;51.394;12.340;2023-03-31T12:24:56;11.60;98.60
23301;DHT22;11819;51.394;12.340;2023-03-31T12:27:35;11.60;98.40
23301;DHT22;11819;51.394;12.340;2023-03-31T12:33:02;11.60;98.30
23301;DHT22;11819;51.394;12.340;2023-03-31T12:41:31;11.70;98.30
23301;DHT22;11819;51.394;12.340;2023-03-31T12:44:23;11.70;98.10
23301;DHT22;11819;51.394;12.340;2023-03-31T12:47:14;11.80;98.10
23301;DHT22;11819;51.394;12.340;2023-03-31T12:53:02;11.80;97.80
23301;DHT22;11819;51.394;12.340;2023-03-31T12:55:37;11.80;97.70
23301;DHT22;11819;51.394;12.340;2023-03-31T13:01:07;11.90;97.60
23301;DHT22;11819;51.394;12.340;2023-03-31T13:06:44;12.10;97.50
23301;DHT22;11819;51.394;12.340;2023-03-31T13:09:04;12.20;96.80
23301;DHT22;11819;51.394;12.340;2023-03-31T13:14:01;12.30;95.80
23301;DHT22;11819;51.394;12.340;2023-03-31T13:16:32;12.30;96.00
23301;DHT22;11819;51.394;12.340;2023-03-31T13:18:59;12.40;96.10
23301;DHT22;11819;51.394;12.340;2023-03-31T13:21:25;12.50;95.90
23301;DHT22;11819;51.394;12.340;2023-03-31T13:23:51;12.60;95.70
23301;DHT22;11819;51.394;12.340;2023-03-31T13:34:36;12.80;94.00
23301;DHT22;11819;51.394;12.340;2023-03-31T13:46:06;13.10;93.20
23301;DHT22;11819;51.394;12.340;2023-03-31T13:51:22;13.20;92.70
23301;DHT22;11819;51.394;12.340;2023-03-31T13:54:07;13.10;92.40
23301;DHT22;11819;51.394;12.340;2023-03-31T13:56:50;13.10;91.80
23301;DHT22;11819;51.394;12.340;2023-03-31T14:07:57;13.20;91.70
23301;DHT22;11819;51.394;12.340;2023-03-31T14:10:32;13.40;92.00
23301;DHT22;11819;51.394;12.340;2023-03-31T14:13:07;14.10;92.30
23301;DHT22;11819;51.394;12.340;2023-03-31T14:15:36;15.00;90.30
23301;DHT22;11819;51.394;12.340;2023-03-31T14:18:04;15.60;87.80
23301;DHT22;11819;51.394;12.340;2023-03-31T14:20:40;15.90;84.70
23301;DHT22;11819;51.394;12.340;2023-03-31T14:23:37;15.70;83.70
23301;DHT22;11819;51.394;12.340;2023-03-31T14:26:36;15.40;84.60
23301;DHT22;11819;51.394;12.340;2023-03-31T14:29:29;15.10;85.60
23301;DHT22;11819;51.394;12.340;2023-03-31T14:32:04;14.80;86.20
23301;DHT22;11819;51.394;12.340;2023-03-31T14:37:04;14.40;87.80
23301;DHT22;11819;51.394;12.340;2023-03-31T14:42:05;14.00;89.20
23301;DHT22;11819;51.394;12.340;2023-03-31T14:44:35;13.80;90.10
23301;DHT22;11819;51.394;12.340;2023-03-31T14:47:01;13.70;91.10
23301;DHT22;11819;51.394;12.340;2023-03-31T14:49:33;13.40;91.30
23301;DHT22;11819;51.394;12.340;2023-03-31T14:52:00;12.90;91.90
23301;DHT22;11819;51.394;12.340;2023-03-31T14:54:33;12.40;92.70
23301;DHT22;11819;51.394;12.340;2023-03-31T14:57:02;12.20;93.50
23301;DHT22;11819;51.394;12.340;2023-03-31T14:59:32;12.10;94.20
23301;DHT22;11819;51.394;12.340;2023-03-31T15:02:00;12.10;94.40
23301;DHT22;11819;51.394;12.340;2023-03-31T15:04:29;12.20;94.60
23301;DHT22;11819;51.394;12.340;2023-03-31T15:06:56;12.20;94.20
23301;DHT22;11819;51.394;12.340;2023-03-31T15:09:27;12.20;94.20
23301;DHT22;11819;51.394;12.340;2023-03-31T15:12:00;12.10;94.30
23301;DHT22;11819;51.394;12.340;2023-03-31T15:14:31;12.10;94.50
23301;DHT22;11819;51.394;12.340;2023-03-31T15:16:59;12.10;94.60
23301;DHT22;11819;51.394;12.340;2023-03-31T15:19:29;12.10;94.70
23301;DHT22;11819;51.394;12.340;2023-03-31T15:22:09;12.10;94.70
23301;DHT22;11819;51.394;12.340;2023-03-31T15:24:35;12.10;94.90
23301;DHT22;11819;51.394;12.340;2023-03-31T15:27:08;12.10;94.90
23301;DHT22;11819;51.394;12.340;2023-03-31T15:29:37;12.10;95.00
23301;DHT22;11819;51.394;12.340;2023-03-31T15:32:15;12.10;95.20
23301;DHT22;11819;51.394;12.340;2023-03-31T15:34:42;12.30;95.20
23301;DHT22;11819;51.394;12.340;2023-03-31T15:37:08;12.70;95.30
23301;DHT22;11819;51.394;12.340;2023-03-31T15:39:35;13.10;95.10
23301;DHT22;11819;51.394;12.340;2023-03-31T15:42:03;13.50;94.80
23301;DHT22;11819;51.394;12.340;2023-03-31T15:44:43;13.80;93.70
23301;DHT22;11819;51.394;12.340;2023-03-31T15:47:23;13.80;92.80
23301;DHT22;11819;51.394;12.340;2023-03-31T15:50:09;13.60;92.80
23301;DHT22;11819;51.394;12.340;2023-03-31T15:52:45;14.00;93.00
23301;DHT22;11819;51.394;12.340;2023-03-31T15:55:30;14.60;91.10
23301;DHT22;11819;51.394;12.340;2023-03-31T15:57:58;15.10;88.80
23301;DHT22;11819;51.394;12.340;2023-03-31T16:00:44;15.40;86.20
23301;DHT22;11819;51.394;12.340;2023-03-31T16:03:28;15.50;83.40
23301;DHT22;11819;51.394;12.340;2023-03-31T16:06:02;15.30;82.90
23301;DHT22;11819;51.394;12.340;2023-03-31T16:08:41;15.00;84.00
23301;DHT22;11819;51.394;12.340;2023-03-31T16:11:13;14.50;84.80
23301;DHT22;11819;51.394;12.340;2023-03-31T16:13:42;14.20;85.90
23301;DHT22;11819;51.394;12.340;2023-03-31T16:16:13;13.70;87.10
23301;DHT22;11819;51.394;12.340;2023-03-31T16:18:48;13.30;88.20
23301;DHT22;11819;51.394;12.340;2023-03-31T16:21:19;12.90;89.80
23301;DHT22;11819;51.394;12.340;2023-03-31T16:23:54;12.70;90.30
23301;DHT22;11819;51.394;12.340;2023-03-31T16:26:22;12.40;90.80
23301;DHT22;11819;51.394;12.340;2023-03-31T16:28:50;12.30;91.20
23301;DHT22;11819;51.394;12.340;2023-03-31T16:31:35;12.10;91.30
23301;DHT22;11819;51.394;12.340;2023-03-31T16:34:04;12.00;91.50
23301;DHT22;11819;51.394;12.340;2023-03-31T16:36:30;12.00;91.60
23301;DHT22;11819;51.394;12.340;2023-03-31T16:38:56;11.90;91.70
23301;DHT22;11819;51.394;12.340;2023-03-31T16:41:23;11.90;91.90
23301;DHT22;11819;51.394;12.340;2023-03-31T16:43:49;11.80;92.00
23301;DHT22;11819;51.394;12.340;2023-03-31T16:46:20;11.80;92.10
23301;DHT22;11819;51.394;12.340;2023-03-31T16:48:46;11.70;92.20
23301;DHT22;11819;51.394;12.340;2023-03-31T16:51:12;11.70;92.40
23301;DHT22;11819;51.394;12.340;2023-03-31T16:53:38;11.70;92.50
23301;DHT22;11819;51.394;12.340;2023-03-31T16:56:05;11.70;92.60
23301;DHT22;11819;51.394;12.340;2023-03-31T16:58:36;11.70;92.60
23301;DHT22;11819;51.394;12.340;2023-03-31T17:01:03;11.70;92.70
23301;DHT22;11819;51.394;12.340;2023-03-31T17:03:29;11.80;92.70
23301;DHT22;11819;51.394;12.340;2023-03-31T17:05:56;11.80;92.70
23301;DHT22;11819;51.394;12.340;2023-03-31T17:08:24;11.80;92.60
23301;DHT22;11819;51.394;12.340;2023-03-31T17:11:06;11.80;92.40
23301;DHT22;11819;51.394;12.340;2023-03-31T17:13:32;11.80;92.50
23301;DHT22;11819;51.394;12.340;2023-03-31T17:15:58;11.80;92.40
23301;DHT22;11819;51.394;12.340;2023-03-31T17:18:24;11.80;92.40
23301;DHT22;11819;51.394;12.340;2023-03-31T17:20:50;11.80;92.40
23301;DHT22;11819;51.394;12.340;2023-03-31T17:23:19;11.80;92.40
23301;DHT22;11819;51.394;12.340;2023-03-31T17:25:47;11.80;92.40
23301;DHT22;11819;51.394;12.340;2023-03-31T17:28:13;11.80;92.70
23301;DHT22;11819;51.394;12.340;2023-03-31T17:30:38;11.80;92.40
23301;DHT22;11819;51.394;12.340;2023-03-31T17:33:04;11.80;92.30
23301;DHT22;11819;51.394;12.340;2023-03-31T17:35:30;11.90;92.30
23301;DHT22;11819;51.394;12.340;2023-03-31T17:37:56;11.90;92.20
23301;DHT22;11819;51.394;12.340;2023-03-31T17:40:23;11.80;92.20
23301;DHT22;11819;51.394;12.340;2023-03-31T17:42:50;11.80;92.20
23301;DHT22;11819;51.394;12.340;2023-03-31T17:45:17;11.80;92.30